sensor_id;sensor_type;location;lat;lon;timestamp;P1;durP1;ratioP1;P2;durP2;ratioP2
22131;SDS011;11232;51.748;19.390;2023-04-15T00:00:04;12.03;;;5.10;;
22131;SDS011;11232;51.748;19.390;2023-04-15T00:02:31;11.03;;;5.50;;
22131;SDS011;11232;51.748;19.390;2023-04-15T00:04:56;9.70;;;4.97;;
22131;SDS011;11232;51.748;19.390;2023-04-15T00:07:22;13.43;;;5.27;;
22131;SDS011;11232;51.748;19.390;2023-04-15T00:09:48;10.07;;;5.17;;
22131;SDS011;11232;51.748;19.390;2023-04-15T00:12:18;8.57;;;5.10;;
22131;SDS011;11232;51.748;19.390;2023-04-15T00:14:45;11.93;;;4.97;;
22131;SDS011;11232;51.748;19.390;2023-04-15T00:17:11;7.70;;;4.70;;
22131;SDS011;11232;51.748;19.390;2023-04-15T00:19:38;9.43;;;4.87;;
22131;SDS011;11232;51.748;19.390;2023-04-15T00:22:04;12.27;;;5.60;;
22131;SDS011;11232;51.748;19.390;2023-04-15T00:24:31;6.63;;;4.67;;
22131;SDS011;11232;51.748;19.390;2023-04-15T00:26:57;9.47;;;4.87;;
22131;SDS011;11232;51.748;19.390;2023-04-15T00:29:23;10.73;;;5.27;;
22131;SDS011;11232;51.748;19.390;2023-04-15T00:31:49;8.03;;;4.63;;
22131;SDS011;11232;51.748;19.390;2023-04-15T00:34:15;10.03;;;4.77;;
22131;SDS011;11232;51.748;19.390;2023-04-15T00:36:42;11.10;;;5.40;;
22131;SDS011;11232;51.748;19.390;2023-04-15T00:39:08;11.83;;;5.10;;
22131;SDS011;11232;51.748;19.390;2023-04-15T00:41:34;11.43;;;5.23;;
22131;SDS011;11232;51.748;19.390;2023-04-15T00:44:03;7.50;;;5.13;;
22131;SDS011;11232;51.748;19.390;2023-04-15T00:46:29;10.73;;;5.10;;
22131;SDS011;11232;51.748;19.390;2023-04-15T00:48:55;13.93;;;5.47;;
22131;SDS011;11232;51.748;19.390;2023-04-15T00:51:21;10.27;;;4.63;;
22131;SDS011;11232;51.748;19.390;2023-04-15T00:53:48;11.53;;;5.13;;
22131;SDS011;11232;51.748;19.390;2023-04-15T00:56:15;7.93;;;4.83;;
22131;SDS011;11232;51.748;19.390;2023-04-15T00:58:41;9.37;;;5.27;;
22131;SDS011;11232;51.748;19.390;2023-04-15T01:01:07;9.73;;;5.07;;
22131;SDS011;11232;51.748;19.390;2023-04-15T01:03:34;6.43;;;4.53;;
22131;SDS011;11232;51.748;19.390;2023-04-15T01:06:00;10.10;;;5.17;;
22131;SDS011;11232;51.748;19.390;2023-04-15T01:08:28;11.60;;;4.93;;
22131;SDS011;11232;51.748;19.390;2023-04-15T01:10:55;9.10;;;5.30;;
22131;SDS011;11232;51.748;19.390;2023-04-15T01:13:22;10.80;;;5.43;;
22131;SDS011;11232;51.748;19.390;2023-04-15T01:15:49;8.87;;;4.87;;
22131;SDS011;11232;51.748;19.390;2023-04-15T01:18:16;9.47;;;4.47;;
22131;SDS011;11232;51.748;19.390;2023-04-15T01:20:41;9.00;;;5.07;;
22131;SDS011;11232;51.748;19.390;2023-04-15T01:23:08;9.83;;;5.00;;
22131;SDS011;11232;51.748;19.390;2023-04-15T01:25:34;9.70;;;5.00;;
22131;SDS011;11232;51.748;19.390;2023-04-15T01:28:01;10.40;;;5.00;;
22131;SDS011;11232;51.748;19.390;2023-04-15T01:30:27;6.57;;;4.73;;
22131;SDS011;11232;51.748;19.390;2023-04-15T01:32:53;10.30;;;4.70;;
22131;SDS011;11232;51.748;19.390;2023-04-15T01:35:20;11.00;;;5.83;;
22131;SDS011;11232;51.748;19.390;2023-04-15T01:37:46;9.70;;;5.00;;
22131;SDS011;11232;51.748;19.390;2023-04-15T01:40:12;9.47;;;5.30;;
22131;SDS011;11232;51.748;19.390;2023-04-15T01:42:39;10.10;;;5.40;;
22131;SDS011;11232;51.748;19.390;2023-04-15T01:45:05;11.37;;;5.17;;
22131;SDS011;11232;51.748;19.390;2023-04-15T01:47:32;10.83;;;5.53;;
22131;SDS011;11232;51.748;19.390;2023-04-15T01:49:58;9.27;;;5.20;;
22131;SDS011;11232;51.748;19.390;2023-04-15T01:52:24;10.83;;;5.80;;
22131;SDS011;11232;51.748;19.390;2023-04-15T01:54:50;9.47;;;5.33;;
22131;SDS011;11232;51.748;19.390;2023-04-15T01:57:16;8.73;;;5.37;;
22131;SDS011;11232;51.748;19.390;2023-04-15T01:59:42;8.63;;;5.40;;
22131;SDS011;11232;51.748;19.390;2023-04-15T02:02:08;11.63;;;6.07;;
22131;SDS011;11232;51.748;19.390;2023-04-15T02:04:34;9.37;;;5.90;;
22131;SDS011;11232;51.748;19.390;2023-04-15T02:07:00;10.93;;;5.90;;
22131;SDS011;11232;51.748;19.390;2023-04-15T02:09:26;8.83;;;5.60;;
22131;SDS011;11232;51.748;19.390;2023-04-15T02:11:52;7.47;;;4.93;;
22131;SDS011;11232;51.748;19.390;2023-04-15T02:14:18;9.17;;;5.97;;
22131;SDS011;11232;51.748;19.390;2023-04-15T02:16:44;13.20;;;7.13;;
22131;SDS011;11232;51.748;19.390;2023-04-15T02:19:10;12.83;;;7.77;;
22131;SDS011;11232;51.748;19.390;2023-04-15T02:21:36;16.07;;;8.63;;
22131;SDS011;11232;51.748;19.390;2023-04-15T02:24:02;12.03;;;7.00;;
22131;SDS011;11232;51.748;19.390;2023-04-15T02:26:28;12.30;;;6.43;;
22131;SDS011;11232;51.748;19.390;2023-04-15T02:28:57;9.67;;;5.77;;
22131;SDS011;11232;51.748;19.390;2023-04-15T02:31:23;10.70;;;5.80;;
22131;SDS011;11232;51.748;19.390;2023-04-15T02:33:49;20.57;;;6.23;;
22131;SDS011;11232;51.748;19.390;2023-04-15T02:36:15;10.27;;;6.03;;
22131;SDS011;11232;51.748;19.390;2023-04-15T02:38:41;12.93;;;6.10;;
22131;SDS011;11232;51.748;19.390;2023-04-15T02:41:10;9.60;;;5.57;;
22131;SDS011;11232;51.748;19.390;2023-04-15T02:43:36;10.00;;;5.87;;
22131;SDS011;11232;51.748;19.390;2023-04-15T02:46:04;11.33;;;6.37;;
22131;SDS011;11232;51.748;19.390;2023-04-15T02:48:30;9.93;;;5.67;;
22131;SDS011;11232;51.748;19.390;2023-04-15T02:51:12;10.43;;;6.20;;
22131;SDS011;11232;51.748;19.390;2023-04-15T02:53:38;10.13;;;5.57;;
22131;SDS011;11232;51.748;19.390;2023-04-15T02:56:05;10.17;;;6.43;;
22131;SDS011;11232;51.748;19.390;2023-04-15T02:58:32;8.97;;;6.10;;
22131;SDS011;11232;51.748;19.390;2023-04-15T03:00:58;9.67;;;5.97;;
22131;SDS011;11232;51.748;19.390;2023-04-15T03:03:24;9.03;;;5.77;;
22131;SDS011;11232;51.748;19.390;2023-04-15T03:05:52;9.57;;;5.47;;
22131;SDS011;11232;51.748;19.390;2023-04-15T03:08:18;13.47;;;6.17;;
22131;SDS011;11232;51.748;19.390;2023-04-15T03:10:45;11.70;;;5.73;;
22131;SDS011;11232;51.748;19.390;2023-04-15T03:13:11;9.87;;;6.10;;
22131;SDS011;11232;51.748;19.390;2023-04-15T03:15:37;9.57;;;5.83;;
22131;SDS011;11232;51.748;19.390;2023-04-15T03:18:03;13.30;;;6.30;;
22131;SDS011;11232;51.748;19.390;2023-04-15T03:20:29;10.57;;;5.93;;
22131;SDS011;11232;51.748;19.390;2023-04-15T03:22:55;10.37;;;6.40;;
22131;SDS011;11232;51.748;19.390;2023-04-15T03:25:21;9.10;;;5.77;;
22131;SDS011;11232;51.748;19.390;2023-04-15T03:27:47;9.93;;;5.50;;
22131;SDS011;11232;51.748;19.390;2023-04-15T03:30:13;9.53;;;5.80;;
22131;SDS011;11232;51.748;19.390;2023-04-15T03:32:39;8.47;;;5.93;;
22131;SDS011;11232;51.748;19.390;2023-04-15T03:35:05;10.00;;;6.37;;
22131;SDS011;11232;51.748;19.390;2023-04-15T03:37:32;9.33;;;5.77;;
22131;SDS011;11232;51.748;19.390;2023-04-15T03:39:58;8.57;;;5.77;;
22131;SDS011;11232;51.748;19.390;2023-04-15T03:42:24;10.77;;;6.73;;
22131;SDS011;11232;51.748;19.390;2023-04-15T03:44:51;10.23;;;5.50;;
22131;SDS011;11232;51.748;19.390;2023-04-15T03:47:16;9.77;;;5.67;;
22131;SDS011;11232;51.748;19.390;2023-04-15T03:49:42;10.60;;;5.93;;
22131;SDS011;11232;51.748;19.390;2023-04-15T03:52:09;9.90;;;5.80;;
22131;SDS011;11232;51.748;19.390;2023-04-15T03:54:35;9.00;;;5.50;;
22131;SDS011;11232;51.748;19.390;2023-04-15T03:57:01;9.33;;;5.13;;
22131;SDS011;11232;51.748;19.390;2023-04-15T03:59:27;9.27;;;5.50;;
22131;SDS011;11232;51.748;19.390;2023-04-15T04:01:53;7.90;;;4.80;;
22131;SDS011;11232;51.748;19.390;2023-04-15T04:04:19;8.50;;;5.37;;
22131;SDS011;11232;51.748;19.390;2023-04-15T04:06:45;7.80;;;5.00;;
22131;SDS011;11232;51.748;19.390;2023-04-15T04:09:11;8.20;;;5.37;;
22131;SDS011;11232;51.748;19.390;2023-04-15T04:11:37;11.03;;;5.43;;
22131;SDS011;11232;51.748;19.390;2023-04-15T04:14:03;9.30;;;5.47;;
22131;SDS011;11232;51.748;19.390;2023-04-15T04:16:29;11.80;;;5.73;;
22131;SDS011;11232;51.748;19.390;2023-04-15T04:18:55;7.60;;;5.27;;
22131;SDS011;11232;51.748;19.390;2023-04-15T04:21:21;10.17;;;5.27;;
22131;SDS011;11232;51.748;19.390;2023-04-15T04:23:47;7.20;;;4.80;;
22131;SDS011;11232;51.748;19.390;2023-04-15T04:26:13;9.97;;;5.70;;
22131;SDS011;11232;51.748;19.390;2023-04-15T04:28:39;9.60;;;5.33;;
22131;SDS011;11232;51.748;19.390;2023-04-15T04:31:05;10.53;;;5.87;;
22131;SDS011;11232;51.748;19.390;2023-04-15T04:33:32;8.80;;;5.23;;
22131;SDS011;11232;51.748;19.390;2023-04-15T04:35:58;8.60;;;5.10;;
22131;SDS011;11232;51.748;19.390;2023-04-15T04:38:24;11.00;;;5.90;;
22131;SDS011;11232;51.748;19.390;2023-04-15T04:40:50;9.37;;;5.00;;
22131;SDS011;11232;51.748;19.390;2023-04-15T04:43:16;6.93;;;4.67;;
22131;SDS011;11232;51.748;19.390;2023-04-15T04:45:42;7.73;;;5.30;;
22131;SDS011;11232;51.748;19.390;2023-04-15T04:48:08;9.03;;;5.17;;
22131;SDS011;11232;51.748;19.390;2023-04-15T04:50:34;8.00;;;4.73;;
22131;SDS011;11232;51.748;19.390;2023-04-15T04:53:00;8.83;;;5.03;;
22131;SDS011;11232;51.748;19.390;2023-04-15T04:55:27;9.70;;;6.13;;
22131;SDS011;11232;51.748;19.390;2023-04-15T04:57:53;7.43;;;5.13;;
22131;SDS011;11232;51.748;19.390;2023-04-15T05:00:19;8.17;;;4.87;;
22131;SDS011;11232;51.748;19.390;2023-04-15T05:02:45;6.67;;;4.73;;
22131;SDS011;11232;51.748;19.390;2023-04-15T05:05:11;6.33;;;4.27;;
22131;SDS011;11232;51.748;19.390;2023-04-15T05:07:37;7.80;;;4.73;;
22131;SDS011;11232;51.748;19.390;2023-04-15T05:10:03;10.40;;;5.07;;
22131;SDS011;11232;51.748;19.390;2023-04-15T05:12:30;14.33;;;6.80;;
22131;SDS011;11232;51.748;19.390;2023-04-15T05:14:56;9.53;;;5.37;;
22131;SDS011;11232;51.748;19.390;2023-04-15T05:17:22;6.73;;;4.33;;
22131;SDS011;11232;51.748;19.390;2023-04-15T05:19:48;8.93;;;5.10;;
22131;SDS011;11232;51.748;19.390;2023-04-15T05:22:14;7.63;;;4.57;;
22131;SDS011;11232;51.748;19.390;2023-04-15T05:24:40;6.70;;;3.87;;
22131;SDS011;11232;51.748;19.390;2023-04-15T05:27:06;5.80;;;3.50;;
22131;SDS011;11232;51.748;19.390;2023-04-15T05:29:32;5.37;;;3.80;;
22131;SDS011;11232;51.748;19.390;2023-04-15T05:31:58;6.23;;;3.70;;
22131;SDS011;11232;51.748;19.390;2023-04-15T05:34:25;6.77;;;3.60;;
22131;SDS011;11232;51.748;19.390;2023-04-15T05:36:51;8.33;;;4.27;;
22131;SDS011;11232;51.748;19.390;2023-04-15T05:39:17;6.57;;;4.07;;
22131;SDS011;11232;51.748;19.390;2023-04-15T05:41:43;6.23;;;3.73;;
22131;SDS011;11232;51.748;19.390;2023-04-15T05:44:09;8.13;;;4.50;;
22131;SDS011;11232;51.748;19.390;2023-04-15T05:46:35;5.57;;;3.77;;
22131;SDS011;11232;51.748;19.390;2023-04-15T05:49:01;5.97;;;3.97;;
22131;SDS011;11232;51.748;19.390;2023-04-15T05:51:27;7.17;;;4.17;;
22131;SDS011;11232;51.748;19.390;2023-04-15T05:53:53;7.77;;;4.87;;
22131;SDS011;11232;51.748;19.390;2023-04-15T05:56:19;8.93;;;4.83;;
22131;SDS011;11232;51.748;19.390;2023-04-15T05:58:46;7.13;;;4.00;;
22131;SDS011;11232;51.748;19.390;2023-04-15T06:01:12;6.53;;;4.20;;
22131;SDS011;11232;51.748;19.390;2023-04-15T06:03:38;6.33;;;3.93;;
22131;SDS011;11232;51.748;19.390;2023-04-15T06:06:04;6.90;;;4.70;;
22131;SDS011;11232;51.748;19.390;2023-04-15T06:08:30;5.77;;;4.13;;
22131;SDS011;11232;51.748;19.390;2023-04-15T06:10:57;5.67;;;4.27;;
22131;SDS011;11232;51.748;19.390;2023-04-15T06:13:23;6.17;;;3.83;;
22131;SDS011;11232;51.748;19.390;2023-04-15T06:15:49;7.40;;;4.83;;
22131;SDS011;11232;51.748;19.390;2023-04-15T06:18:15;9.23;;;5.10;;
22131;SDS011;11232;51.748;19.390;2023-04-15T06:20:41;7.53;;;4.37;;
22131;SDS011;11232;51.748;19.390;2023-04-15T06:23:07;7.17;;;4.27;;
22131;SDS011;11232;51.748;19.390;2023-04-15T06:25:33;6.53;;;4.43;;
22131;SDS011;11232;51.748;19.390;2023-04-15T06:27:59;7.07;;;4.10;;
22131;SDS011;11232;51.748;19.390;2023-04-15T06:30:25;9.43;;;4.63;;
22131;SDS011;11232;51.748;19.390;2023-04-15T06:32:51;7.00;;;4.10;;
22131;SDS011;11232;51.748;19.390;2023-04-15T06:35:17;6.73;;;4.20;;
22131;SDS011;11232;51.748;19.390;2023-04-15T06:37:43;7.33;;;4.43;;
22131;SDS011;11232;51.748;19.390;2023-04-15T06:40:09;7.90;;;4.20;;
22131;SDS011;11232;51.748;19.390;2023-04-15T06:42:35;7.73;;;4.47;;
22131;SDS011;11232;51.748;19.390;2023-04-15T06:45:02;7.43;;;4.60;;
22131;SDS011;11232;51.748;19.390;2023-04-15T06:47:28;7.70;;;4.40;;
22131;SDS011;11232;51.748;19.390;2023-04-15T06:49:54;6.60;;;4.40;;
22131;SDS011;11232;51.748;19.390;2023-04-15T06:52:20;5.53;;;3.63;;
22131;SDS011;11232;51.748;19.390;2023-04-15T06:54:46;7.40;;;3.73;;
22131;SDS011;11232;51.748;19.390;2023-04-15T06:57:12;6.97;;;3.80;;
22131;SDS011;11232;51.748;19.390;2023-04-15T06:59:38;7.93;;;4.80;;
22131;SDS011;11232;51.748;19.390;2023-04-15T07:02:04;10.07;;;4.63;;
22131;SDS011;11232;51.748;19.390;2023-04-15T07:04:30;9.70;;;4.03;;
22131;SDS011;11232;51.748;19.390;2023-04-15T07:06:56;8.30;;;4.20;;
22131;SDS011;11232;51.748;19.390;2023-04-15T07:09:23;7.10;;;4.23;;
22131;SDS011;11232;51.748;19.390;2023-04-15T07:11:49;6.67;;;4.37;;
22131;SDS011;11232;51.748;19.390;2023-04-15T07:14:15;5.80;;;3.93;;
22131;SDS011;11232;51.748;19.390;2023-04-15T07:16:41;6.97;;;3.87;;
22131;SDS011;11232;51.748;19.390;2023-04-15T07:19:07;7.77;;;4.10;;
22131;SDS011;11232;51.748;19.390;2023-04-15T07:21:33;5.57;;;3.77;;
22131;SDS011;11232;51.748;19.390;2023-04-15T07:23:59;7.53;;;4.40;;
22131;SDS011;11232;51.748;19.390;2023-04-15T07:26:25;7.43;;;4.07;;
22131;SDS011;11232;51.748;19.390;2023-04-15T07:28:51;6.13;;;3.80;;
22131;SDS011;11232;51.748;19.390;2023-04-15T07:31:17;6.50;;;3.90;;
22131;SDS011;11232;51.748;19.390;2023-04-15T07:33:43;7.90;;;4.17;;
22131;SDS011;11232;51.748;19.390;2023-04-15T07:36:10;7.57;;;4.10;;
22131;SDS011;11232;51.748;19.390;2023-04-15T07:38:36;6.40;;;4.10;;
22131;SDS011;11232;51.748;19.390;2023-04-15T07:41:02;6.17;;;4.20;;
22131;SDS011;11232;51.748;19.390;2023-04-15T07:43:28;6.73;;;4.07;;
22131;SDS011;11232;51.748;19.390;2023-04-15T07:45:54;6.83;;;4.27;;
22131;SDS011;11232;51.748;19.390;2023-04-15T07:48:20;6.20;;;4.37;;
22131;SDS011;11232;51.748;19.390;2023-04-15T07:50:47;8.40;;;4.50;;
22131;SDS011;11232;51.748;19.390;2023-04-15T07:53:13;6.90;;;4.23;;
22131;SDS011;11232;51.748;19.390;2023-04-15T07:55:39;8.00;;;4.90;;
22131;SDS011;11232;51.748;19.390;2023-04-15T07:58:05;10.57;;;4.83;;
22131;SDS011;11232;51.748;19.390;2023-04-15T08:00:31;6.73;;;4.50;;
22131;SDS011;11232;51.748;19.390;2023-04-15T08:02:57;8.57;;;4.57;;
22131;SDS011;11232;51.748;19.390;2023-04-15T08:05:23;8.83;;;5.03;;
22131;SDS011;11232;51.748;19.390;2023-04-15T08:07:49;9.97;;;5.20;;
22131;SDS011;11232;51.748;19.390;2023-04-15T08:10:16;8.57;;;5.20;;
22131;SDS011;11232;51.748;19.390;2023-04-15T08:12:42;8.23;;;4.87;;
22131;SDS011;11232;51.748;19.390;2023-04-15T08:15:08;10.77;;;5.33;;
22131;SDS011;11232;51.748;19.390;2023-04-15T08:17:34;9.20;;;5.50;;
22131;SDS011;11232;51.748;19.390;2023-04-15T08:20:00;10.97;;;5.87;;
22131;SDS011;11232;51.748;19.390;2023-04-15T08:22:26;10.30;;;5.40;;
22131;SDS011;11232;51.748;19.390;2023-04-15T08:24:52;11.50;;;6.47;;
22131;SDS011;11232;51.748;19.390;2023-04-15T08:27:18;13.87;;;5.97;;
22131;SDS011;11232;51.748;19.390;2023-04-15T08:29:44;12.33;;;6.27;;
22131;SDS011;11232;51.748;19.390;2023-04-15T08:32:11;11.00;;;5.93;;
22131;SDS011;11232;51.748;19.390;2023-04-15T08:34:37;10.17;;;6.30;;
22131;SDS011;11232;51.748;19.390;2023-04-15T08:37:03;11.83;;;6.10;;
22131;SDS011;11232;51.748;19.390;2023-04-15T08:39:29;11.47;;;6.50;;
22131;SDS011;11232;51.748;19.390;2023-04-15T08:44:21;11.10;;;6.43;;
22131;SDS011;11232;51.748;19.390;2023-04-15T08:46:50;12.57;;;6.80;;
22131;SDS011;11232;51.748;19.390;2023-04-15T08:49:16;16.67;;;6.53;;
22131;SDS011;11232;51.748;19.390;2023-04-15T08:51:42;11.27;;;6.57;;
22131;SDS011;11232;51.748;19.390;2023-04-15T08:54:09;13.30;;;6.47;;
22131;SDS011;11232;51.748;19.390;2023-04-15T08:56:35;13.23;;;6.95;;
22131;SDS011;11232;51.748;19.390;2023-04-15T08:59:01;11.70;;;6.00;;
22131;SDS011;11232;51.748;19.390;2023-04-15T09:01:28;10.60;;;6.17;;
22131;SDS011;11232;51.748;19.390;2023-04-15T09:03:55;11.88;;;6.57;;
22131;SDS011;11232;51.748;19.390;2023-04-15T09:06:21;12.67;;;6.60;;
22131;SDS011;11232;51.748;19.390;2023-04-15T09:08:50;11.60;;;6.97;;
22131;SDS011;11232;51.748;19.390;2023-04-15T09:11:17;13.25;;;6.50;;
22131;SDS011;11232;51.748;19.390;2023-04-15T09:13:43;11.07;;;6.50;;
22131;SDS011;11232;51.748;19.390;2023-04-15T09:16:10;12.93;;;6.60;;
22131;SDS011;11232;51.748;19.390;2023-04-15T09:18:37;13.67;;;6.57;;
22131;SDS011;11232;51.748;19.390;2023-04-15T09:21:09;13.53;;;7.00;;
22131;SDS011;11232;51.748;19.390;2023-04-15T09:23:39;11.63;;;6.87;;
22131;SDS011;11232;51.748;19.390;2023-04-15T09:26:06;8.37;;;5.83;;
22131;SDS011;11232;51.748;19.390;2023-04-15T09:28:32;12.47;;;6.00;;
22131;SDS011;11232;51.748;19.390;2023-04-15T09:31:00;11.70;;;6.32;;
22131;SDS011;11232;51.748;19.390;2023-04-15T09:33:27;9.05;;;5.93;;
22131;SDS011;11232;51.748;19.390;2023-04-15T09:36:03;8.48;;;5.82;;
22131;SDS011;11232;51.748;19.390;2023-04-15T09:38:30;11.82;;;5.97;;
22131;SDS011;11232;51.748;19.390;2023-04-15T09:40:56;9.45;;;6.15;;
22131;SDS011;11232;51.748;19.390;2023-04-15T09:43:22;11.52;;;6.68;;
22131;SDS011;11232;51.748;19.390;2023-04-15T09:45:50;8.98;;;5.47;;
22131;SDS011;11232;51.748;19.390;2023-04-15T09:48:20;9.55;;;6.30;;
22131;SDS011;11232;51.748;19.390;2023-04-15T09:50:47;10.85;;;6.32;;
22131;SDS011;11232;51.748;19.390;2023-04-15T09:53:20;11.70;;;6.20;;
22131;SDS011;11232;51.748;19.390;2023-04-15T09:55:53;9.45;;;4.78;;
22131;SDS011;11232;51.748;19.390;2023-04-15T09:58:26;10.00;;;5.75;;
22131;SDS011;11232;51.748;19.390;2023-04-15T10:00:53;8.18;;;5.05;;
22131;SDS011;11232;51.748;19.390;2023-04-15T10:03:24;8.68;;;5.15;;
22131;SDS011;11232;51.748;19.390;2023-04-15T10:05:55;9.98;;;5.47;;
22131;SDS011;11232;51.748;19.390;2023-04-15T10:08:22;8.48;;;5.72;;
22131;SDS011;11232;51.748;19.390;2023-04-15T10:10:49;8.98;;;5.85;;
22131;SDS011;11232;51.748;19.390;2023-04-15T10:13:25;6.80;;;4.95;;
22131;SDS011;11232;51.748;19.390;2023-04-15T10:16:12;7.03;;;4.18;;
22131;SDS011;11232;51.748;19.390;2023-04-15T10:18:43;7.82;;;4.85;;
22131;SDS011;11232;51.748;19.390;2023-04-15T10:21:09;7.60;;;5.13;;
22131;SDS011;11232;51.748;19.390;2023-04-15T10:23:37;8.60;;;5.20;;
22131;SDS011;11232;51.748;19.390;2023-04-15T10:26:04;9.82;;;5.97;;
22131;SDS011;11232;51.748;19.390;2023-04-15T10:28:30;8.43;;;4.80;;
22131;SDS011;11232;51.748;19.390;2023-04-15T10:30:56;8.93;;;5.68;;
22131;SDS011;11232;51.748;19.390;2023-04-15T10:33:24;7.88;;;5.22;;
22131;SDS011;11232;51.748;19.390;2023-04-15T10:35:51;8.85;;;5.40;;
22131;SDS011;11232;51.748;19.390;2023-04-15T10:43:37;6.88;;;4.63;;
22131;SDS011;11232;51.748;19.390;2023-04-15T10:46:04;6.07;;;4.38;;
22131;SDS011;11232;51.748;19.390;2023-04-15T10:48:30;9.63;;;4.93;;
22131;SDS011;11232;51.748;19.390;2023-04-15T10:50:57;9.75;;;5.60;;
22131;SDS011;11232;51.748;19.390;2023-04-15T10:53:29;8.43;;;4.88;;
22131;SDS011;11232;51.748;19.390;2023-04-15T10:55:56;8.70;;;5.40;;
22131;SDS011;11232;51.748;19.390;2023-04-15T10:58:23;8.80;;;5.13;;
22131;SDS011;11232;51.748;19.390;2023-04-15T11:00:50;9.10;;;5.32;;
22131;SDS011;11232;51.748;19.390;2023-04-15T11:03:17;10.47;;;5.80;;
22131;SDS011;11232;51.748;19.390;2023-04-15T11:05:58;6.45;;;4.95;;
22131;SDS011;11232;51.748;19.390;2023-04-15T11:11:10;10.07;;;5.30;;
22131;SDS011;11232;51.748;19.390;2023-04-15T11:13:36;10.10;;;5.43;;
22131;SDS011;11232;51.748;19.390;2023-04-15T11:16:12;9.88;;;5.68;;
22131;SDS011;11232;51.748;19.390;2023-04-15T11:18:38;7.47;;;5.40;;
22131;SDS011;11232;51.748;19.390;2023-04-15T11:21:04;8.45;;;5.28;;
22131;SDS011;11232;51.748;19.390;2023-04-15T11:23:40;6.95;;;4.97;;
22131;SDS011;11232;51.748;19.390;2023-04-15T11:26:10;9.63;;;3.60;;
22131;SDS011;11232;51.748;19.390;2023-04-15T11:28:40;6.13;;;3.27;;
22131;SDS011;11232;51.748;19.390;2023-04-15T11:31:11;4.07;;;2.40;;
22131;SDS011;11232;51.748;19.390;2023-04-15T11:33:38;1.70;;;1.37;;
22131;SDS011;11232;51.748;19.390;2023-04-15T11:36:10;1.30;;;1.20;;
22131;SDS011;11232;51.748;19.390;2023-04-15T11:38:36;5.83;;;1.60;;
22131;SDS011;11232;51.748;19.390;2023-04-15T11:41:02;3.43;;;1.57;;
22131;SDS011;11232;51.748;19.390;2023-04-15T11:43:30;3.57;;;2.03;;
22131;SDS011;11232;51.748;19.390;2023-04-15T11:45:59;4.13;;;1.90;;
22131;SDS011;11232;51.748;19.390;2023-04-15T11:51:05;3.03;;;2.13;;
22131;SDS011;11232;51.748;19.390;2023-04-15T11:53:49;5.17;;;1.80;;
22131;SDS011;11232;51.748;19.390;2023-04-15T11:56:17;3.77;;;1.57;;
22131;SDS011;11232;51.748;19.390;2023-04-15T11:58:43;2.37;;;1.47;;
22131;SDS011;11232;51.748;19.390;2023-04-15T12:01:10;3.10;;;1.20;;
22131;SDS011;11232;51.748;19.390;2023-04-15T12:03:40;2.23;;;1.33;;
22131;SDS011;11232;51.748;19.390;2023-04-15T12:06:11;17.77;;;4.77;;
22131;SDS011;11232;51.748;19.390;2023-04-15T12:14:05;2.40;;;2.10;;
22131;SDS011;11232;51.748;19.390;2023-04-15T12:16:32;2.67;;;2.27;;
22131;SDS011;11232;51.748;19.390;2023-04-15T12:18:59;3.57;;;2.30;;
22131;SDS011;11232;51.748;19.390;2023-04-15T12:21:25;3.83;;;2.07;;
22131;SDS011;11232;51.748;19.390;2023-04-15T12:23:55;4.27;;;2.17;;
22131;SDS011;11232;51.748;19.390;2023-04-15T12:26:25;3.07;;;2.00;;
22131;SDS011;11232;51.748;19.390;2023-04-15T12:28:55;2.83;;;2.07;;
22131;SDS011;11232;51.748;19.390;2023-04-15T12:31:25;6.00;;;2.30;;
22131;SDS011;11232;51.748;19.390;2023-04-15T12:33:53;4.83;;;2.40;;
22131;SDS011;11232;51.748;19.390;2023-04-15T12:36:19;4.70;;;2.20;;
22131;SDS011;11232;51.748;19.390;2023-04-15T12:38:45;4.40;;;2.50;;
22131;SDS011;11232;51.748;19.390;2023-04-15T12:41:11;4.50;;;2.30;;
22131;SDS011;11232;51.748;19.390;2023-04-15T12:43:37;2.57;;;1.80;;
22131;SDS011;11232;51.748;19.390;2023-04-15T12:46:03;4.93;;;2.27;;
22131;SDS011;11232;51.748;19.390;2023-04-15T12:48:29;3.10;;;2.20;;
22131;SDS011;11232;51.748;19.390;2023-04-15T12:50:55;2.90;;;1.80;;
22131;SDS011;11232;51.748;19.390;2023-04-15T12:53:21;2.57;;;2.07;;
22131;SDS011;11232;51.748;19.390;2023-04-15T12:55:47;2.57;;;1.77;;
22131;SDS011;11232;51.748;19.390;2023-04-15T12:58:13;2.30;;;1.70;;
22131;SDS011;11232;51.748;19.390;2023-04-15T13:00:39;4.30;;;2.13;;
22131;SDS011;11232;51.748;19.390;2023-04-15T13:03:05;3.90;;;2.07;;
22131;SDS011;11232;51.748;19.390;2023-04-15T13:05:31;2.50;;;1.53;;
22131;SDS011;11232;51.748;19.390;2023-04-15T13:07:57;7.75;;;2.72;;
22131;SDS011;11232;51.748;19.390;2023-04-15T13:10:23;4.18;;;2.03;;
22131;SDS011;11232;51.748;19.390;2023-04-15T13:12:49;3.37;;;2.07;;
22131;SDS011;11232;51.748;19.390;2023-04-15T13:15:17;2.65;;;2.20;;
22131;SDS011;11232;51.748;19.390;2023-04-15T13:17:44;5.07;;;2.40;;
22131;SDS011;11232;51.748;19.390;2023-04-15T13:20:10;3.03;;;2.10;;
22131;SDS011;11232;51.748;19.390;2023-04-15T13:22:36;4.10;;;2.38;;
22131;SDS011;11232;51.748;19.390;2023-04-15T13:25:02;5.25;;;2.40;;
22131;SDS011;11232;51.748;19.390;2023-04-15T13:27:28;2.75;;;1.92;;
22131;SDS011;11232;51.748;19.390;2023-04-15T13:29:55;2.95;;;2.10;;
22131;SDS011;11232;51.748;19.390;2023-04-15T13:32:21;5.75;;;2.45;;
22131;SDS011;11232;51.748;19.390;2023-04-15T13:34:47;2.65;;;1.92;;
22131;SDS011;11232;51.748;19.390;2023-04-15T13:37:13;3.33;;;2.00;;
22131;SDS011;11232;51.748;19.390;2023-04-15T13:39:39;3.70;;;2.20;;
22131;SDS011;11232;51.748;19.390;2023-04-15T13:42:05;2.85;;;2.00;;
22131;SDS011;11232;51.748;19.390;2023-04-15T13:44:31;3.80;;;2.25;;
22131;SDS011;11232;51.748;19.390;2023-04-15T13:46:57;4.00;;;2.00;;
22131;SDS011;11232;51.748;19.390;2023-04-15T13:49:23;3.10;;;2.15;;
22131;SDS011;11232;51.748;19.390;2023-04-15T13:51:49;3.88;;;2.60;;
22131;SDS011;11232;51.748;19.390;2023-04-15T13:54:16;4.38;;;2.70;;
22131;SDS011;11232;51.748;19.390;2023-04-15T13:56:42;5.47;;;3.70;;
22131;SDS011;11232;51.748;19.390;2023-04-15T13:59:08;5.60;;;3.50;;
22131;SDS011;11232;51.748;19.390;2023-04-15T14:01:34;5.90;;;3.25;;
22131;SDS011;11232;51.748;19.390;2023-04-15T14:04:00;6.32;;;3.28;;
22131;SDS011;11232;51.748;19.390;2023-04-15T14:06:27;4.68;;;3.35;;
22131;SDS011;11232;51.748;19.390;2023-04-15T14:08:53;5.18;;;3.50;;
22131;SDS011;11232;51.748;19.390;2023-04-15T14:11:19;3.33;;;2.43;;
22131;SDS011;11232;51.748;19.390;2023-04-15T14:13:45;5.70;;;2.50;;
22131;SDS011;11232;51.748;19.390;2023-04-15T14:16:11;4.57;;;2.93;;
22131;SDS011;11232;51.748;19.390;2023-04-15T14:18:37;3.43;;;2.47;;
22131;SDS011;11232;51.748;19.390;2023-04-15T14:21:04;3.47;;;2.45;;
22131;SDS011;11232;51.748;19.390;2023-04-15T14:23:31;5.37;;;2.97;;
22131;SDS011;11232;51.748;19.390;2023-04-15T14:25:57;4.30;;;2.37;;
22131;SDS011;11232;51.748;19.390;2023-04-15T14:28:23;5.70;;;2.80;;
22131;SDS011;11232;51.748;19.390;2023-04-15T14:30:49;3.67;;;2.87;;
22131;SDS011;11232;51.748;19.390;2023-04-15T14:33:15;5.13;;;3.07;;
22131;SDS011;11232;51.748;19.390;2023-04-15T14:35:41;6.10;;;2.90;;
22131;SDS011;11232;51.748;19.390;2023-04-15T14:38:07;4.50;;;2.97;;
22131;SDS011;11232;51.748;19.390;2023-04-15T14:40:34;4.55;;;3.10;;
22131;SDS011;11232;51.748;19.390;2023-04-15T14:43:01;7.22;;;3.30;;
22131;SDS011;11232;51.748;19.390;2023-04-15T14:45:27;4.83;;;3.17;;